Meteo Giornale » Osservazioni meteo Italia » Brescia-Montichiari

ore: 17:50 - Osservazioni Meteo Brescia-Montichiari
Lat. 45° 24' N Lon. 10° 18' E Alt. 104 metri s.l.m.

sereno Europe/Rome

6 °C

Sereno

Temp. 24 Ore

-1 °C

9 °C

Est/Sud-Est

7.4 Km/h

Dew point 0 °C

Umidità 65 %

Visibilità  10 Km

Il sole sorge alle ore 07:50

Il sole tramonta alle ore 17:09

Data e Ora Cielo e Fenomeni T °C DP °C Um. % Pres. hPa Vis. km Vento km/h
Oggi h: 17:50 sereno Sereno 6 0 65 1010 10 E/SE 7.4
Oggi h: 16:50 sereno Sereno 8 0 56 1010 10 N 5.5
Oggi h: 15:50 sereno Sereno 9 0 53 1008 10 N 5.5
Oggi h: 13:50 sereno Sereno 9 -1 49 1008 10 O/SO 7.4
Oggi h: 12:50 sereno Sereno 8 -1 52 1008 10 N 3.7
Oggi h: 11:50 sereno Sereno 7 -1 56 1008 10 SE 9.3
Oggi h: 10:50 sereno Sereno 6 -2 56 1008 10 SE 7.4
Oggi h: 09:50 sereno Sereno 4 1 80 1008 10 N 3.7
Oggi h: 08:50 sereno Sereno 1 -1 86 1008 10 N 5.5
Oggi h: 07:50 sereno Sereno 1 -0 93 1008 10 E/NE 9.3
Oggi h: 06:50 sereno Sereno 0 -1 92 1008 10 E/NE 7.4
Oggi h: 05:50 sereno Sereno -1 -1 100 1008 10 N/NE 7.4
Oggi h: 04:50 sereno Sereno -1 -1 100 1008 10 N 5.5
Oggi h: 03:50 sereno Sereno -1 -2 92 1008 10 N 3.7
Oggi h: 02:50 sereno Sereno -0 -1 92 1009 10 N 5.5
Oggi h: 01:50 sereno Sereno 1 -0 93 1009 10 N 1.8
Oggi h: 00:50 sereno Sereno 2 0 86 1009 10 N 3.7
Ieri h: 23:50 sereno Sereno 3 0 80 1010 10 N 5.5
Ieri h: 22:50 sereno Sereno 2 -0 86 1011 10 N 3.7
Ieri h: 21:50 sereno Sereno 4 0 75 1011 10 O/SO 9.3
Ieri h: 19:50 sereno Sereno 4 0 75 1011 10 O 9.3
Ieri h: 18:50 sereno Sereno 5 1 75 1011 10 O/NO 9.3
Ieri h: 17:50 sereno Sereno 7 1 65 1011 10 O/SO 14.8